sensor_id;sensor_type;location;lat;lon;timestamp;P1;durP1;ratioP1;P2;durP2;ratioP2
42702;SDS011;28341;52.064;4.920;2023-12-14T00:00:35;30.05;;;22.98;;
42702;SDS011;28341;52.064;4.920;2023-12-14T00:02:42;29.17;;;21.70;;
42702;SDS011;28341;52.064;4.920;2023-12-14T00:04:46;27.30;;;20.48;;
42702;SDS011;28341;52.064;4.920;2023-12-14T00:06:50;27.98;;;20.23;;
42702;SDS011;28341;52.064;4.920;2023-12-14T00:08:55;26.67;;;20.48;;
42702;SDS011;28341;52.064;4.920;2023-12-14T00:11:02;29.88;;;22.00;;
42702;SDS011;28341;52.064;4.920;2023-12-14T00:13:08;25.92;;;19.38;;
42702;SDS011;28341;52.064;4.920;2023-12-14T00:15:12;26.85;;;20.10;;
42702;SDS011;28341;52.064;4.920;2023-12-14T00:17:14;26.05;;;19.65;;
42702;SDS011;28341;52.064;4.920;2023-12-14T00:19:22;28.52;;;19.77;;
42702;SDS011;28341;52.064;4.920;2023-12-14T00:21:27;27.80;;;19.45;;
42702;SDS011;28341;52.064;4.920;2023-12-14T00:23:29;27.83;;;18.23;;
42702;SDS011;28341;52.064;4.920;2023-12-14T00:25:33;25.52;;;18.95;;
42702;SDS011;28341;52.064;4.920;2023-12-14T00:27:38;26.17;;;18.77;;
42702;SDS011;28341;52.064;4.920;2023-12-14T00:29:42;30.10;;;18.90;;
42702;SDS011;28341;52.064;4.920;2023-12-14T00:31:46;29.05;;;19.83;;
42702;SDS011;28341;52.064;4.920;2023-12-14T00:33:51;27.80;;;20.05;;
42702;SDS011;28341;52.064;4.920;2023-12-14T00:35:58;29.95;;;19.33;;
42702;SDS011;28341;52.064;4.920;2023-12-14T00:38:02;28.75;;;20.33;;
42702;SDS011;28341;52.064;4.920;2023-12-14T00:40:07;27.90;;;19.40;;
42702;SDS011;28341;52.064;4.920;2023-12-14T00:42:12;30.45;;;20.98;;
42702;SDS011;28341;52.064;4.920;2023-12-14T00:44:17;32.33;;;20.80;;
42702;SDS011;28341;52.064;4.920;2023-12-14T00:46:21;31.50;;;20.05;;
42702;SDS011;28341;52.064;4.920;2023-12-14T00:48:25;28.48;;;19.65;;
42702;SDS011;28341;52.064;4.920;2023-12-14T00:50:30;28.13;;;20.20;;
42702;SDS011;28341;52.064;4.920;2023-12-14T00:52:37;26.83;;;20.13;;
42702;SDS011;28341;52.064;4.920;2023-12-14T00:54:41;31.17;;;20.90;;
42702;SDS011;28341;52.064;4.920;2023-12-14T00:56:46;26.92;;;18.85;;
42702;SDS011;28341;52.064;4.920;2023-12-14T00:58:50;26.35;;;19.13;;
42702;SDS011;28341;52.064;4.920;2023-12-14T01:00:54;22.55;;;18.52;;
42702;SDS011;28341;52.064;4.920;2023-12-14T01:02:59;24.73;;;18.75;;
42702;SDS011;28341;52.064;4.920;2023-12-14T01:05:04;22.02;;;18.05;;
42702;SDS011;28341;52.064;4.920;2023-12-14T01:07:09;24.20;;;18.17;;
42702;SDS011;28341;52.064;4.920;2023-12-14T01:09:16;23.88;;;17.90;;
42702;SDS011;28341;52.064;4.920;2023-12-14T01:11:20;23.92;;;18.98;;
42702;SDS011;28341;52.064;4.920;2023-12-14T01:13:25;25.98;;;19.45;;
42702;SDS011;28341;52.064;4.920;2023-12-14T01:15:29;23.13;;;17.88;;
42702;SDS011;28341;52.064;4.920;2023-12-14T01:17:33;26.67;;;19.38;;
42702;SDS011;28341;52.064;4.920;2023-12-14T01:19:39;25.58;;;19.65;;
42702;SDS011;28341;52.064;4.920;2023-12-14T01:21:44;25.27;;;20.10;;
42702;SDS011;28341;52.064;4.920;2023-12-14T01:23:48;27.73;;;19.90;;
42702;SDS011;28341;52.064;4.920;2023-12-14T01:25:55;26.65;;;19.77;;
42702;SDS011;28341;52.064;4.920;2023-12-14T01:28:00;26.02;;;19.77;;
42702;SDS011;28341;52.064;4.920;2023-12-14T01:30:02;25.80;;;18.48;;
42702;SDS011;28341;52.064;4.920;2023-12-14T01:32:08;27.90;;;19.83;;
42702;SDS011;28341;52.064;4.920;2023-12-14T01:34:12;28.30;;;18.95;;
42702;SDS011;28341;52.064;4.920;2023-12-14T01:36:19;25.77;;;19.67;;
42702;SDS011;28341;52.064;4.920;2023-12-14T01:38:24;28.35;;;19.15;;
42702;SDS011;28341;52.064;4.920;2023-12-14T01:40:28;23.90;;;18.95;;
42702;SDS011;28341;52.064;4.920;2023-12-14T01:42:35;31.20;;;20.10;;
42702;SDS011;28341;52.064;4.920;2023-12-14T01:44:40;26.52;;;19.42;;
42702;SDS011;28341;52.064;4.920;2023-12-14T01:46:44;25.30;;;19.23;;
42702;SDS011;28341;52.064;4.920;2023-12-14T01:48:48;28.77;;;20.85;;
42702;SDS011;28341;52.064;4.920;2023-12-14T01:50:53;27.08;;;20.35;;
42702;SDS011;28341;52.064;4.920;2023-12-14T01:52:58;29.63;;;20.70;;
42702;SDS011;28341;52.064;4.920;2023-12-14T01:55:03;27.75;;;21.20;;
42702;SDS011;28341;52.064;4.920;2023-12-14T01:57:09;27.63;;;21.20;;
42702;SDS011;28341;52.064;4.920;2023-12-14T01:59:16;29.33;;;21.48;;
42702;SDS011;28341;52.064;4.920;2023-12-14T02:01:21;32.78;;;21.25;;
42702;SDS011;28341;52.064;4.920;2023-12-14T02:03:30;33.10;;;22.25;;
42702;SDS011;28341;52.064;4.920;2023-12-14T02:05:35;34.60;;;22.55;;
42702;SDS011;28341;52.064;4.920;2023-12-14T02:07:37;34.60;;;23.05;;
42702;SDS011;28341;52.064;4.920;2023-12-14T02:09:42;34.15;;;22.05;;
42702;SDS011;28341;52.064;4.920;2023-12-14T02:11:46;38.75;;;22.90;;
42702;SDS011;28341;52.064;4.920;2023-12-14T02:13:51;29.73;;;21.17;;
42702;SDS011;28341;52.064;4.920;2023-12-14T02:15:57;31.50;;;21.80;;
42702;SDS011;28341;52.064;4.920;2023-12-14T02:18:04;34.20;;;23.33;;
42702;SDS011;28341;52.064;4.920;2023-12-14T02:20:09;32.55;;;22.98;;
42702;SDS011;28341;52.064;4.920;2023-12-14T02:22:13;32.83;;;23.85;;
42702;SDS011;28341;52.064;4.920;2023-12-14T02:24:23;33.15;;;23.52;;
42702;SDS011;28341;52.064;4.920;2023-12-14T02:26:27;34.35;;;22.45;;
42702;SDS011;28341;52.064;4.920;2023-12-14T02:28:31;34.95;;;22.75;;
42702;SDS011;28341;52.064;4.920;2023-12-14T02:30:36;32.08;;;22.17;;
42702;SDS011;28341;52.064;4.920;2023-12-14T02:32:40;34.20;;;22.65;;
42702;SDS011;28341;52.064;4.920;2023-12-14T02:34:42;38.50;;;23.65;;
42702;SDS011;28341;52.064;4.920;2023-12-14T02:36:46;40.40;;;23.10;;
42702;SDS011;28341;52.064;4.920;2023-12-14T02:38:51;35.88;;;22.35;;
42702;SDS011;28341;52.064;4.920;2023-12-14T02:40:58;31.30;;;22.45;;
42702;SDS011;28341;52.064;4.920;2023-12-14T02:43:02;33.60;;;22.60;;
42702;SDS011;28341;52.064;4.920;2023-12-14T02:45:07;36.90;;;22.35;;
42702;SDS011;28341;52.064;4.920;2023-12-14T02:47:10;29.63;;;21.42;;
42702;SDS011;28341;52.064;4.920;2023-12-14T02:49:14;40.38;;;23.05;;
42702;SDS011;28341;52.064;4.920;2023-12-14T02:51:19;32.60;;;22.63;;
42702;SDS011;28341;52.064;4.920;2023-12-14T02:53:21;38.50;;;23.98;;
42702;SDS011;28341;52.064;4.920;2023-12-14T02:55:25;38.65;;;23.65;;
42702;SDS011;28341;52.064;4.920;2023-12-14T02:57:30;31.48;;;21.48;;
42702;SDS011;28341;52.064;4.920;2023-12-14T02:59:34;37.47;;;23.77;;
42702;SDS011;28341;52.064;4.920;2023-12-14T03:01:39;33.35;;;22.02;;
42702;SDS011;28341;52.064;4.920;2023-12-14T03:03:43;37.45;;;23.35;;
42702;SDS011;28341;52.064;4.920;2023-12-14T03:05:47;39.00;;;23.95;;
42702;SDS011;28341;52.064;4.920;2023-12-14T03:07:52;34.67;;;22.80;;
42702;SDS011;28341;52.064;4.920;2023-12-14T03:09:56;36.95;;;22.42;;
42702;SDS011;28341;52.064;4.920;2023-12-14T03:11:58;35.58;;;23.48;;
42702;SDS011;28341;52.064;4.920;2023-12-14T03:14:05;37.65;;;22.20;;
42702;SDS011;28341;52.064;4.920;2023-12-14T03:16:10;33.67;;;22.38;;
42702;SDS011;28341;52.064;4.920;2023-12-14T03:18:14;36.47;;;23.83;;
42702;SDS011;28341;52.064;4.920;2023-12-14T03:20:20;36.03;;;23.63;;
42702;SDS011;28341;52.064;4.920;2023-12-14T03:22:24;39.28;;;22.75;;
42702;SDS011;28341;52.064;4.920;2023-12-14T03:24:29;34.35;;;23.40;;
42702;SDS011;28341;52.064;4.920;2023-12-14T03:26:33;39.42;;;22.23;;
42702;SDS011;28341;52.064;4.920;2023-12-14T03:28:37;30.90;;;20.05;;
42702;SDS011;28341;52.064;4.920;2023-12-14T03:30:44;34.85;;;20.58;;
42702;SDS011;28341;52.064;4.920;2023-12-14T03:32:49;33.13;;;19.40;;
42702;SDS011;28341;52.064;4.920;2023-12-14T03:34:51;31.98;;;20.08;;
42702;SDS011;28341;52.064;4.920;2023-12-14T03:36:55;30.50;;;18.83;;
42702;SDS011;28341;52.064;4.920;2023-12-14T03:39:00;31.45;;;17.42;;
42702;SDS011;28341;52.064;4.920;2023-12-14T03:41:02;25.92;;;18.17;;
42702;SDS011;28341;52.064;4.920;2023-12-14T03:43:06;28.90;;;18.10;;
42702;SDS011;28341;52.064;4.920;2023-12-14T03:45:08;29.98;;;17.05;;
42702;SDS011;28341;52.064;4.920;2023-12-14T03:47:16;28.77;;;18.05;;
42702;SDS011;28341;52.064;4.920;2023-12-14T03:49:18;26.48;;;16.02;;
42702;SDS011;28341;52.064;4.920;2023-12-14T03:51:23;25.25;;;17.20;;
42702;SDS011;28341;52.064;4.920;2023-12-14T03:53:27;27.33;;;17.05;;
42702;SDS011;28341;52.064;4.920;2023-12-14T03:55:31;29.27;;;17.70;;
42702;SDS011;28341;52.064;4.920;2023-12-14T03:57:36;26.45;;;16.17;;
42702;SDS011;28341;52.064;4.920;2023-12-14T03:59:41;23.23;;;16.85;;
42702;SDS011;28341;52.064;4.920;2023-12-14T04:01:42;24.48;;;16.15;;
42702;SDS011;28341;52.064;4.920;2023-12-14T04:03:49;28.38;;;15.68;;
42702;SDS011;28341;52.064;4.920;2023-12-14T04:05:54;25.88;;;15.73;;
42702;SDS011;28341;52.064;4.920;2023-12-14T04:07:58;23.02;;;15.27;;
42702;SDS011;28341;52.064;4.920;2023-12-14T04:10:03;30.90;;;15.32;;
42702;SDS011;28341;52.064;4.920;2023-12-14T04:12:08;19.88;;;14.18;;
42702;SDS011;28341;52.064;4.920;2023-12-14T04:14:12;21.60;;;14.13;;
42702;SDS011;28341;52.064;4.920;2023-12-14T04:16:19;24.58;;;15.05;;
42702;SDS011;28341;52.064;4.920;2023-12-14T04:18:23;21.02;;;13.45;;
42702;SDS011;28341;52.064;4.920;2023-12-14T04:20:31;25.02;;;14.20;;
42702;SDS011;28341;52.064;4.920;2023-12-14T04:22:35;22.83;;;13.75;;
42702;SDS011;28341;52.064;4.920;2023-12-14T04:24:39;25.58;;;13.68;;
42702;SDS011;28341;52.064;4.920;2023-12-14T04:26:44;22.58;;;12.95;;
42702;SDS011;28341;52.064;4.920;2023-12-14T04:28:48;17.38;;;12.18;;
42702;SDS011;28341;52.064;4.920;2023-12-14T04:30:53;22.60;;;12.50;;
42702;SDS011;28341;52.064;4.920;2023-12-14T04:32:57;24.23;;;12.20;;
42702;SDS011;28341;52.064;4.920;2023-12-14T04:34:59;20.35;;;12.07;;
42702;SDS011;28341;52.064;4.920;2023-12-14T04:37:06;19.80;;;11.82;;
42702;SDS011;28341;52.064;4.920;2023-12-14T04:39:10;18.80;;;11.93;;
42702;SDS011;28341;52.064;4.920;2023-12-14T04:41:15;25.83;;;12.68;;
42702;SDS011;28341;52.064;4.920;2023-12-14T04:43:20;19.27;;;11.70;;
42702;SDS011;28341;52.064;4.920;2023-12-14T04:45:22;16.05;;;11.55;;
42702;SDS011;28341;52.064;4.920;2023-12-14T04:47:26;21.90;;;11.60;;
42702;SDS011;28341;52.064;4.920;2023-12-14T04:49:29;18.13;;;12.43;;
42702;SDS011;28341;52.064;4.920;2023-12-14T04:51:37;23.25;;;12.10;;
42702;SDS011;28341;52.064;4.920;2023-12-14T04:53:49;20.50;;;11.30;;
42702;SDS011;28341;52.064;4.920;2023-12-14T04:55:53;16.30;;;11.65;;
42702;SDS011;28341;52.064;4.920;2023-12-14T04:57:55;19.27;;;12.35;;
42702;SDS011;28341;52.064;4.920;2023-12-14T05:00:00;16.63;;;11.10;;
42702;SDS011;28341;52.064;4.920;2023-12-14T05:02:05;20.35;;;12.55;;
42702;SDS011;28341;52.064;4.920;2023-12-14T05:04:10;19.38;;;12.07;;
42702;SDS011;28341;52.064;4.920;2023-12-14T05:06:14;20.45;;;11.95;;
42702;SDS011;28341;52.064;4.920;2023-12-14T05:08:19;17.40;;;12.23;;
42702;SDS011;28341;52.064;4.920;2023-12-14T05:10:26;17.35;;;12.15;;
42702;SDS011;28341;52.064;4.920;2023-12-14T05:12:31;16.90;;;12.38;;
42702;SDS011;28341;52.064;4.920;2023-12-14T05:14:35;17.08;;;12.02;;
42702;SDS011;28341;52.064;4.920;2023-12-14T05:16:39;15.07;;;11.43;;
42702;SDS011;28341;52.064;4.920;2023-12-14T05:18:44;15.85;;;12.27;;
42702;SDS011;28341;52.064;4.920;2023-12-14T05:20:49;16.83;;;11.88;;
42702;SDS011;28341;52.064;4.920;2023-12-14T05:22:54;17.65;;;13.25;;
42702;SDS011;28341;52.064;4.920;2023-12-14T05:24:58;16.02;;;12.25;;
42702;SDS011;28341;52.064;4.920;2023-12-14T05:27:05;17.95;;;12.57;;
42702;SDS011;28341;52.064;4.920;2023-12-14T05:29:09;20.08;;;12.30;;
42702;SDS011;28341;52.064;4.920;2023-12-14T05:31:14;20.80;;;13.18;;
42702;SDS011;28341;52.064;4.920;2023-12-14T05:33:18;21.50;;;13.07;;
42702;SDS011;28341;52.064;4.920;2023-12-14T05:35:23;18.52;;;12.60;;
42702;SDS011;28341;52.064;4.920;2023-12-14T05:37:27;20.13;;;13.00;;
42702;SDS011;28341;52.064;4.920;2023-12-14T05:39:32;18.13;;;13.55;;
42702;SDS011;28341;52.064;4.920;2023-12-14T05:41:39;20.67;;;14.00;;
42702;SDS011;28341;52.064;4.920;2023-12-14T05:43:44;18.92;;;12.77;;
42702;SDS011;28341;52.064;4.920;2023-12-14T05:45:48;21.58;;;12.32;;
42702;SDS011;28341;52.064;4.920;2023-12-14T05:47:53;18.23;;;12.77;;
42702;SDS011;28341;52.064;4.920;2023-12-14T05:49:57;18.70;;;12.27;;
42702;SDS011;28341;52.064;4.920;2023-12-14T05:52:02;17.60;;;12.52;;
42702;SDS011;28341;52.064;4.920;2023-12-14T05:54:07;18.75;;;11.63;;
42702;SDS011;28341;52.064;4.920;2023-12-14T05:56:09;17.77;;;11.85;;
42702;SDS011;28341;52.064;4.920;2023-12-14T05:58:13;20.38;;;11.25;;
42702;SDS011;28341;52.064;4.920;2023-12-14T06:00:21;15.65;;;11.40;;
42702;SDS011;28341;52.064;4.920;2023-12-14T06:02:26;17.58;;;12.10;;
42702;SDS011;28341;52.064;4.920;2023-12-14T06:04:30;16.45;;;11.20;;
42702;SDS011;28341;52.064;4.920;2023-12-14T06:06:37;16.42;;;11.45;;
42702;SDS011;28341;52.064;4.920;2023-12-14T06:08:42;16.80;;;11.95;;
42702;SDS011;28341;52.064;4.920;2023-12-14T06:10:46;21.38;;;11.85;;
42702;SDS011;28341;52.064;4.920;2023-12-14T06:12:50;18.70;;;11.95;;
42702;SDS011;28341;52.064;4.920;2023-12-14T06:14:55;18.80;;;12.02;;
42702;SDS011;28341;52.064;4.920;2023-12-14T06:17:02;22.50;;;15.98;;
42702;SDS011;28341;52.064;4.920;2023-12-14T06:19:06;22.38;;;13.85;;
42702;SDS011;28341;52.064;4.920;2023-12-14T06:21:11;25.30;;;17.23;;
42702;SDS011;28341;52.064;4.920;2023-12-14T06:23:15;18.05;;;11.98;;
42702;SDS011;28341;52.064;4.920;2023-12-14T06:25:19;19.20;;;11.35;;
42702;SDS011;28341;52.064;4.920;2023-12-14T06:27:24;16.25;;;10.90;;
42702;SDS011;28341;52.064;4.920;2023-12-14T06:29:28;15.18;;;10.63;;
42702;SDS011;28341;52.064;4.920;2023-12-14T06:31:30;18.02;;;11.57;;
42702;SDS011;28341;52.064;4.920;2023-12-14T06:33:37;16.15;;;12.48;;
42702;SDS011;28341;52.064;4.920;2023-12-14T06:35:41;15.73;;;12.20;;
42702;SDS011;28341;52.064;4.920;2023-12-14T06:37:46;13.00;;;11.27;;
42702;SDS011;28341;52.064;4.920;2023-12-14T06:39:50;14.18;;;10.10;;
42702;SDS011;28341;52.064;4.920;2023-12-14T06:41:52;12.65;;;10.10;;
42702;SDS011;28341;52.064;4.920;2023-12-14T06:43:56;15.98;;;12.18;;
42702;SDS011;28341;52.064;4.920;2023-12-14T06:46:00;15.18;;;11.20;;
42702;SDS011;28341;52.064;4.920;2023-12-14T06:48:03;17.70;;;11.77;;
42702;SDS011;28341;52.064;4.920;2023-12-14T06:50:11;14.68;;;11.48;;
42702;SDS011;28341;52.064;4.920;2023-12-14T06:52:15;15.45;;;12.13;;
42702;SDS011;28341;52.064;4.920;2023-12-14T06:54:20;16.05;;;12.43;;
42702;SDS011;28341;52.064;4.920;2023-12-14T06:56:24;17.85;;;14.20;;
42702;SDS011;28341;52.064;4.920;2023-12-14T06:58:28;17.30;;;14.52;;
42702;SDS011;28341;52.064;4.920;2023-12-14T07:00:33;19.23;;;15.05;;
42702;SDS011;28341;52.064;4.920;2023-12-14T07:02:35;20.33;;;15.00;;
42702;SDS011;28341;52.064;4.920;2023-12-14T07:04:39;18.65;;;15.15;;
42702;SDS011;28341;52.064;4.920;2023-12-14T07:06:48;17.50;;;15.52;;
42702;SDS011;28341;52.064;4.920;2023-12-14T07:08:54;22.67;;;15.63;;
42702;SDS011;28341;52.064;4.920;2023-12-14T07:10:58;21.48;;;16.45;;
42702;SDS011;28341;52.064;4.920;2023-12-14T07:13:00;20.05;;;16.15;;
42702;SDS011;28341;52.064;4.920;2023-12-14T07:15:05;21.25;;;16.13;;
42702;SDS011;28341;52.064;4.920;2023-12-14T07:17:10;22.13;;;15.43;;
42702;SDS011;28341;52.064;4.920;2023-12-14T07:19:15;19.73;;;15.98;;
42702;SDS011;28341;52.064;4.920;2023-12-14T07:21:19;23.20;;;16.27;;
42702;SDS011;28341;52.064;4.920;2023-12-14T07:23:27;21.48;;;15.60;;
42702;SDS011;28341;52.064;4.920;2023-12-14T07:25:32;18.80;;;14.23;;
42702;SDS011;28341;52.064;4.920;2023-12-14T07:27:33;20.77;;;15.30;;
42702;SDS011;28341;52.064;4.920;2023-12-14T07:29:38;19.48;;;14.60;;
42702;SDS011;28341;52.064;4.920;2023-12-14T07:31:42;16.70;;;14.00;;
42702;SDS011;28341;52.064;4.920;2023-12-14T07:33:46;17.25;;;13.60;;
42702;SDS011;28341;52.064;4.920;2023-12-14T07:35:51;21.50;;;13.88;;
42702;SDS011;28341;52.064;4.920;2023-12-14T07:37:53;23.63;;;13.77;;
42702;SDS011;28341;52.064;4.920;2023-12-14T07:40:00;16.80;;;12.57;;
42702;SDS011;28341;52.064;4.920;2023-12-14T07:42:04;22.90;;;14.13;;
42702;SDS011;28341;52.064;4.920;2023-12-14T07:44:09;19.88;;;13.23;;
42702;SDS011;28341;52.064;4.920;2023-12-14T07:46:13;23.42;;;14.68;;
42702;SDS011;28341;52.064;4.920;2023-12-14T07:48:17;19.08;;;13.30;;
42702;SDS011;28341;52.064;4.920;2023-12-14T07:50:19;14.32;;;11.48;;
42702;SDS011;28341;52.064;4.920;2023-12-14T07:52:23;15.30;;;11.68;;
42702;SDS011;28341;52.064;4.920;2023-12-14T07:54:27;16.35;;;11.80;;
42702;SDS011;28341;52.064;4.920;2023-12-14T07:56:34;15.18;;;11.18;;
42702;SDS011;28341;52.064;4.920;2023-12-14T07:58:38;15.75;;;12.27;;
42702;SDS011;28341;52.064;4.920;2023-12-14T08:00:42;17.95;;;12.20;;
42702;SDS011;28341;52.064;4.920;2023-12-14T08:02:46;15.50;;;11.60;;
42702;SDS011;28341;52.064;4.920;2023-12-14T08:04:50;16.00;;;12.68;;
42702;SDS011;28341;52.064;4.920;2023-12-14T08:06:54;18.67;;;12.23;;
42702;SDS011;28341;52.064;4.920;2023-12-14T08:08:58;14.93;;;12.85;;
42702;SDS011;28341;52.064;4.920;2023-12-14T08:11:04;18.38;;;12.77;;
42702;SDS011;28341;52.064;4.920;2023-12-14T08:13:11;16.50;;;12.60;;
42702;SDS011;28341;52.064;4.920;2023-12-14T08:15:15;15.02;;;12.70;;
42702;SDS011;28341;52.064;4.920;2023-12-14T08:17:20;14.73;;;12.20;;
42702;SDS011;28341;52.064;4.920;2023-12-14T08:19:24;17.60;;;12.90;;
42702;SDS011;28341;52.064;4.920;2023-12-14T08:21:29;16.30;;;12.25;;
42702;SDS011;28341;52.064;4.920;2023-12-14T08:23:33;14.38;;;11.35;;
42702;SDS011;28341;52.064;4.920;2023-12-14T08:25:38;15.52;;;12.60;;
42702;SDS011;28341;52.064;4.920;2023-12-14T08:27:42;16.17;;;12.77;;
42702;SDS011;28341;52.064;4.920;2023-12-14T08:29:46;16.58;;;13.77;;
42702;SDS011;28341;52.064;4.920;2023-12-14T08:31:50;15.38;;;13.27;;
42702;SDS011;28341;52.064;4.920;2023-12-14T08:33:57;19.75;;;13.65;;
42702;SDS011;28341;52.064;4.920;2023-12-14T08:36:02;16.25;;;13.10;;
42702;SDS011;28341;52.064;4.920;2023-12-14T08:38:08;18.20;;;14.13;;
42702;SDS011;28341;52.064;4.920;2023-12-14T08:40:12;16.55;;;12.88;;
42702;SDS011;28341;52.064;4.920;2023-12-14T08:42:17;18.45;;;14.07;;
42702;SDS011;28341;52.064;4.920;2023-12-14T08:44:21;17.75;;;13.10;;
42702;SDS011;28341;52.064;4.920;2023-12-14T08:46:28;18.38;;;13.50;;
42702;SDS011;28341;52.064;4.920;2023-12-14T08:48:32;17.10;;;14.07;;
42702;SDS011;28341;52.064;4.920;2023-12-14T08:50:36;16.90;;;13.75;;
42702;SDS011;28341;52.064;4.920;2023-12-14T08:52:41;15.82;;;13.80;;
42702;SDS011;28341;52.064;4.920;2023-12-14T08:54:46;15.77;;;13.32;;
42702;SDS011;28341;52.064;4.920;2023-12-14T08:56:50;19.55;;;14.32;;
42702;SDS011;28341;52.064;4.920;2023-12-14T08:58:55;17.27;;;14.23;;
42702;SDS011;28341;52.064;4.920;2023-12-14T09:00:59;18.13;;;13.98;;
42702;SDS011;28341;52.064;4.920;2023-12-14T09:03:06;22.67;;;15.55;;
42702;SDS011;28341;52.064;4.920;2023-12-14T09:05:10;17.67;;;13.98;;
42702;SDS011;28341;52.064;4.920;2023-12-14T09:07:16;18.63;;;13.90;;
42702;SDS011;28341;52.064;4.920;2023-12-14T09:09:20;17.80;;;13.07;;
42702;SDS011;28341;52.064;4.920;2023-12-14T09:11:24;19.85;;;14.65;;
42702;SDS011;28341;52.064;4.920;2023-12-14T09:13:28;17.27;;;13.77;;
42702;SDS011;28341;52.064;4.920;2023-12-14T09:15:32;15.18;;;12.95;;
42702;SDS011;28341;52.064;4.920;2023-12-14T09:17:34;15.75;;;13.57;;
42702;SDS011;28341;52.064;4.920;2023-12-14T09:19:41;17.58;;;13.07;;
42702;SDS011;28341;52.064;4.920;2023-12-14T09:21:45;15.70;;;12.57;;
42702;SDS011;28341;52.064;4.920;2023-12-14T09:23:49;15.68;;;12.98;;
42702;SDS011;28341;52.064;4.920;2023-12-14T09:25:53;14.60;;;11.85;;
42702;SDS011;28341;52.064;4.920;2023-12-14T09:27:59;15.55;;;11.85;;
42702;SDS011;28341;52.064;4.920;2023-12-14T09:30:04;13.73;;;11.55;;
42702;SDS011;28341;52.064;4.920;2023-12-14T09:32:11;13.60;;;11.57;;
42702;SDS011;28341;52.064;4.920;2023-12-14T09:34:15;14.57;;;9.55;;
42702;SDS011;28341;52.064;4.920;2023-12-14T09:36:22;11.85;;;9.32;;
42702;SDS011;28341;52.064;4.920;2023-12-14T09:38:26;14.95;;;9.20;;
42702;SDS011;28341;52.064;4.920;2023-12-14T09:40:30;10.85;;;8.90;;
42702;SDS011;28341;52.064;4.920;2023-12-14T09:42:36;9.15;;;7.80;;
42702;SDS011;28341;52.064;4.920;2023-12-14T09:44:41;11.48;;;8.73;;
42702;SDS011;28341;52.064;4.920;2023-12-14T09:46:47;11.93;;;9.05;;
42702;SDS011;28341;52.064;4.920;2023-12-14T09:48:51;12.02;;;9.60;;
42702;SDS011;28341;52.064;4.920;2023-12-14T09:50:56;10.50;;;8.23;;
42702;SDS011;28341;52.064;4.920;2023-12-14T09:53:02;10.90;;;8.52;;
42702;SDS011;28341;52.064;4.920;2023-12-14T09:55:08;12.43;;;9.27;;
42702;SDS011;28341;52.064;4.920;2023-12-14T09:57:12;12.35;;;8.77;;
42702;SDS011;28341;52.064;4.920;2023-12-14T09:59:16;11.43;;;8.93;;
42702;SDS011;28341;52.064;4.920;2023-12-14T10:01:23;13.10;;;8.98;;
42702;SDS011;28341;52.064;4.920;2023-12-14T10:03:29;12.15;;;8.93;;
42702;SDS011;28341;52.064;4.920;2023-12-14T10:05:34;10.93;;;8.52;;
42702;SDS011;28341;52.064;4.920;2023-12-14T10:07:41;10.80;;;8.70;;
42702;SDS011;28341;52.064;4.920;2023-12-14T10:09:49;10.48;;;7.97;;
42702;SDS011;28341;52.064;4.920;2023-12-14T10:12:04;14.10;;;9.75;;
42702;SDS011;28341;52.064;4.920;2023-12-14T10:14:17;13.55;;;9.82;;
42702;SDS011;28341;52.064;4.920;2023-12-14T10:16:27;10.15;;;8.75;;
42702;SDS011;28341;52.064;4.920;2023-12-14T10:18:32;13.30;;;9.10;;
42702;SDS011;28341;52.064;4.920;2023-12-14T10:20:34;13.57;;;8.70;;
42702;SDS011;28341;52.064;4.920;2023-12-14T10:22:40;12.35;;;9.68;;
42702;SDS011;28341;52.064;4.920;2023-12-14T10:24:52;10.95;;;9.40;;
42702;SDS011;28341;52.064;4.920;2023-12-14T10:26:56;13.32;;;9.98;;
42702;SDS011;28341;52.064;4.920;2023-12-14T10:29:01;11.77;;;9.93;;
42702;SDS011;28341;52.064;4.920;2023-12-14T10:31:04;13.77;;;9.82;;
42702;SDS011;28341;52.064;4.920;2023-12-14T10:33:09;12.05;;;8.93;;
42702;SDS011;28341;52.064;4.920;2023-12-14T10:35:14;11.88;;;9.13;;
42702;SDS011;28341;52.064;4.920;2023-12-14T10:37:17;12.77;;;9.88;;
42702;SDS011;28341;52.064;4.920;2023-12-14T10:39:22;12.80;;;10.00;;
42702;SDS011;28341;52.064;4.920;2023-12-14T10:41:30;13.68;;;10.57;;
42702;SDS011;28341;52.064;4.920;2023-12-14T10:43:36;11.82;;;9.85;;
42702;SDS011;28341;52.064;4.920;2023-12-14T10:45:40;13.35;;;9.77;;
42702;SDS011;28341;52.064;4.920;2023-12-14T10:47:48;15.50;;;9.95;;
42702;SDS011;28341;52.064;4.920;2023-12-14T10:49:53;14.30;;;10.07;;
42702;SDS011;28341;52.064;4.920;2023-12-14T10:51:58;14.23;;;10.48;;
42702;SDS011;28341;52.064;4.920;2023-12-14T10:54:03;13.50;;;10.27;;
42702;SDS011;28341;52.064;4.920;2023-12-14T10:56:08;12.30;;;10.40;;
42702;SDS011;28341;52.064;4.920;2023-12-14T10:58:16;12.15;;;9.57;;
42702;SDS011;28341;52.064;4.920;2023-12-14T11:00:22;12.38;;;10.02;;
42702;SDS011;28341;52.064;4.920;2023-12-14T11:02:27;13.50;;;10.60;;
42702;SDS011;28341;52.064;4.920;2023-12-14T11:04:28;14.25;;;10.88;;
42702;SDS011;28341;52.064;4.920;2023-12-14T11:06:35;13.82;;;10.73;;
42702;SDS011;28341;52.064;4.920;2023-12-14T11:08:40;14.65;;;10.50;;
42702;SDS011;28341;52.064;4.920;2023-12-14T11:10:52;13.27;;;10.38;;
42702;SDS011;28341;52.064;4.920;2023-12-14T11:15:07;13.50;;;10.38;;
42702;SDS011;28341;52.064;4.920;2023-12-14T11:17:12;13.27;;;9.65;;
42702;SDS011;28341;52.064;4.920;2023-12-14T11:19:25;13.73;;;11.27;;
42702;SDS011;28341;52.064;4.920;2023-12-14T11:21:30;15.77;;;11.70;;
42702;SDS011;28341;52.064;4.920;2023-12-14T11:23:35;12.02;;;10.55;;
42702;SDS011;28341;52.064;4.920;2023-12-14T11:25:40;14.55;;;11.45;;
42702;SDS011;28341;52.064;4.920;2023-12-14T11:27:42;13.18;;;11.25;;
42702;SDS011;28341;52.064;4.920;2023-12-14T11:29:47;14.18;;;10.68;;
42702;SDS011;28341;52.064;4.920;2023-12-14T11:31:55;13.48;;;10.73;;
42702;SDS011;28341;52.064;4.920;2023-12-14T11:33:59;14.95;;;10.32;;
42702;SDS011;28341;52.064;4.920;2023-12-14T11:36:08;14.82;;;11.60;;
42702;SDS011;28341;52.064;4.920;2023-12-14T11:38:13;18.58;;;12.82;;
42702;SDS011;28341;52.064;4.920;2023-12-14T11:40:15;15.13;;;13.32;;
42702;SDS011;28341;52.064;4.920;2023-12-14T11:42:23;17.08;;;11.93;;
42702;SDS011;28341;52.064;4.920;2023-12-14T11:44:32;15.45;;;11.63;;
42702;SDS011;28341;52.064;4.920;2023-12-14T11:46:37;15.50;;;12.45;;
42702;SDS011;28341;52.064;4.920;2023-12-14T11:48:46;16.50;;;12.18;;
42702;SDS011;28341;52.064;4.920;2023-12-14T11:50:51;13.57;;;11.60;;
42702;SDS011;28341;52.064;4.920;2023-12-14T11:52:56;14.40;;;12.13;;
42702;SDS011;28341;52.064;4.920;2023-12-14T11:54:57;15.88;;;11.88;;
42702;SDS011;28341;52.064;4.920;2023-12-14T11:57:03;15.15;;;12.13;;
42702;SDS011;28341;52.064;4.920;2023-12-14T11:59:10;18.38;;;12.55;;
42702;SDS011;28341;52.064;4.920;2023-12-14T12:01:14;14.68;;;11.77;;
42702;SDS011;28341;52.064;4.920;2023-12-14T12:03:23;18.13;;;12.32;;
42702;SDS011;28341;52.064;4.920;2023-12-14T12:05:38;15.30;;;11.82;;
42702;SDS011;28341;52.064;4.920;2023-12-14T12:07:44;16.85;;;12.23;;
42702;SDS011;28341;52.064;4.920;2023-12-14T12:09:48;13.60;;;11.20;;
42702;SDS011;28341;52.064;4.920;2023-12-14T12:11:53;15.15;;;11.15;;
42702;SDS011;28341;52.064;4.920;2023-12-14T12:13:55;16.80;;;11.93;;